Holland, MA (01521)

2:20 AM EDT on May 07, 2015 (GMT -0400)
Haynes Hill Road | | Change Station
CLOSE
Current Station
Personal Weather Station
Location: Wales, MA
Elevation: 1122 ft
Nearby Weather Stations

Elev 1122 ft 42.09 °N, 72.21 °W | Updated 9 seconds ago

Clear
Clear
53.8 °F
Feels Like 53.8 °F
N
0.0
Wind Variable Wind from SW
Gusts 0.0 mph

Today
High -- | Low -- °F
--% Chance of Precip.
Yesterday
High -- | Low -- °F
Precip. -- in
5:37 AM 7:53 PM
Waning Gibbous, 90% visible
Pressure 30.23 in
Visibility 10.0 miles
Clouds Clear
Dew Point 32 °F
Humidity 43%
Rainfall 0.00 in
Snow Depth Not available.
UV 0.0 out of 12
Pollen 10.70 out of 12
Air Quality Not available.
Flu Activity Widespread
METAR KIJD 070552Z AUTO 00000KT 10SM CLR 07/02 A3023 RMK AO2 SLP237 T00670022 10178 20067 58003

More Conditions Fewer Conditions

Pressure 30.23 in
Visibility 10.0 miles
Clouds Clear
Dew Point 32 °F
Humidity 43%
Rainfall 0.00 in
Snow Depth Not available.
UV 0.0 out of 12
Pollen 10.70 out of 12
Air Quality Not available.
Flu Activity Widespread
METAR KIJD 070552Z AUTO 00000KT 10SM CLR 07/02 A3023 RMK AO2 SLP237 T00670022 10178 20067 58003

More Conditions Fewer Conditions

10-Day Weather Forecast

Almanac

Astronomy

May. 07, 2015 Rise Set
Actual Time
Civil Twilight
Nautical Twilight
Astronomical Twilight
Moon
Length of Visible Light
Length of Day
Tomorrow will be .
, % of the Moon is Illuminated

Today's Extremes

State Highs State Lows

Community

WunderPhotos

Upload Photos

1,819,126 photos uploaded!

WunderBlogs® & News

Nearby

Air Quality

  Air Quality AQ Index Pollutant
Not available.

Snow Depth

Station Depth Elevation

Earthquake Activity

City Distance Mag. Time & Date
Minimum magnitude displayed is 2.5.

Coastal Water Temperatures

Place Temperature

Stations

Nearby Weather Stations

Station Location Temp. Windchill Dew Point Humidity Wind Precip. Elev Updated Type